createdAt,value
2023-06-23T00:00:12.819Z,99.90
2023-06-23T00:01:19.295Z,99.90
2023-06-23T00:02:21.444Z,99.90
2023-06-23T00:03:24.006Z,99.90
2023-06-23T00:04:26.312Z,99.90
2023-06-23T00:05:29.647Z,99.90
2023-06-23T00:06:32.272Z,99.90
2023-06-23T00:07:34.817Z,99.90
2023-06-23T00:08:40.386Z,99.90
2023-06-23T00:09:44.894Z,99.90
2023-06-23T00:10:49.190Z,99.90
2023-06-23T00:11:51.483Z,99.90
2023-06-23T00:12:53.959Z,99.90
2023-06-23T00:13:58.280Z,99.90
2023-06-23T00:15:01.168Z,99.90
2023-06-23T00:16:05.834Z,99.90
2023-06-23T00:17:08.326Z,99.90
2023-06-23T00:18:11.446Z,99.90
2023-06-23T00:19:13.809Z,99.90
2023-06-23T00:20:16.333Z,99.90
2023-06-23T00:21:21.019Z,99.90
2023-06-23T00:22:23.496Z,99.90
2023-06-23T00:23:27.525Z,99.90
2023-06-23T00:24:32.109Z,99.90
2023-06-23T00:25:34.727Z,99.90
2023-06-23T00:26:37.032Z,99.90
2023-06-23T00:27:43.837Z,99.90
2023-06-23T00:28:46.120Z,99.90
2023-06-23T00:29:53.426Z,99.90
2023-06-23T00:30:55.960Z,99.90
2023-06-23T00:31:58.397Z,99.90
2023-06-23T00:33:00.683Z,99.90
2023-06-23T00:34:03.034Z,99.90
2023-06-23T00:35:07.104Z,99.90
2023-06-23T00:36:09.296Z,99.90
2023-06-23T00:37:11.518Z,99.90
2023-06-23T00:38:14.586Z,99.90
2023-06-23T00:39:20.120Z,99.90
2023-06-23T00:40:23.761Z,99.90
2023-06-23T00:41:28.531Z,99.90
2023-06-23T00:42:30.825Z,99.90
2023-06-23T00:43:33.629Z,99.90
2023-06-23T00:44:35.967Z,99.90
2023-06-23T00:45:38.585Z,99.90
2023-06-23T00:46:41.082Z,99.90
2023-06-23T00:47:46.261Z,99.90
2023-06-23T00:48:50.125Z,99.90
2023-06-23T00:49:53.068Z,99.90
2023-06-23T00:50:57.270Z,99.90
2023-06-23T00:52:03.139Z,99.90
2023-06-23T00:53:07.567Z,99.90
2023-06-23T00:54:09.745Z,99.90
2023-06-23T00:55:12.737Z,99.90
2023-06-23T00:56:23.285Z,99.90
2023-06-23T00:57:25.462Z,99.90
2023-06-23T00:58:30.255Z,99.90
2023-06-23T00:59:32.721Z,99.90
2023-06-23T01:00:35.133Z,99.90
2023-06-23T01:03:30.446Z,99.90
2023-06-23T01:04:34.523Z,99.90
2023-06-23T01:05:41.366Z,99.90
2023-06-23T01:07:01.423Z,99.90
2023-06-23T01:08:31.418Z,99.90
2023-06-23T01:09:53.578Z,99.90
2023-06-23T01:11:00.878Z,99.90
2023-06-23T01:12:14.996Z,99.90
2023-06-23T01:13:25.119Z,99.90
2023-06-23T01:14:36.531Z,99.90
2023-06-23T01:15:46.403Z,99.90
2023-06-23T01:17:04.370Z,99.90
2023-06-23T01:18:14.655Z,99.90
2023-06-23T01:19:39.484Z,99.90
2023-06-23T01:20:46.742Z,99.90
2023-06-23T01:21:51.818Z,99.90
2023-06-23T01:23:15.849Z,99.90
2023-06-23T01:24:33.634Z,99.90
2023-06-23T01:25:55.666Z,99.90
2023-06-23T01:27:38.664Z,99.90
2023-06-23T01:28:50.255Z,99.90
2023-06-23T01:29:59.932Z,99.90
2023-06-23T01:31:04.654Z,99.90
2023-06-23T01:32:14.923Z,99.90
2023-06-23T01:33:22.953Z,99.90
2023-06-23T01:34:32.901Z,99.90
2023-06-23T01:35:41.465Z,99.90
2023-06-23T01:36:54.584Z,99.90
2023-06-23T01:38:05.364Z,99.90
2023-06-23T01:39:13.231Z,99.90
2023-06-23T01:40:19.223Z,99.90
2023-06-23T01:41:27.534Z,99.90
2023-06-23T01:42:32.968Z,99.90
2023-06-23T01:43:39.595Z,99.90
2023-06-23T01:44:47.657Z,99.90
2023-06-23T01:45:50.799Z,99.90
2023-06-23T01:46:57.065Z,99.90
2023-06-23T01:48:04.989Z,99.90
2023-06-23T01:49:15.443Z,99.90
2023-06-23T01:50:19.768Z,99.90
2023-06-23T01:51:24.604Z,99.90
2023-06-23T01:52:29.243Z,99.90
2023-06-23T01:53:34.037Z,99.90
2023-06-23T01:56:39.558Z,99.90
2023-06-23T01:57:44.148Z,99.90
2023-06-23T01:58:47.518Z,99.90
2023-06-23T01:59:51.272Z,99.90
2023-06-23T02:00:54.637Z,99.90
2023-06-23T02:01:58.009Z,99.90
2023-06-23T02:03:02.832Z,99.90
2023-06-23T02:04:06.426Z,99.90
2023-06-23T02:05:10.994Z,99.90
2023-06-23T02:06:15.184Z,99.90
2023-06-23T02:07:20.001Z,99.90
2023-06-23T02:08:24.868Z,99.90
2023-06-23T02:09:29.938Z,99.90
2023-06-23T02:10:36.835Z,99.90
2023-06-23T02:11:39.578Z,99.90
2023-06-23T02:12:44.614Z,99.90
2023-06-23T02:13:47.570Z,99.90
2023-06-23T02:14:52.031Z,99.90
2023-06-23T02:15:55.391Z,99.90
2023-06-23T02:16:58.562Z,99.90
2023-06-23T02:18:02.925Z,99.90
2023-06-23T02:19:06.584Z,99.90
2023-06-23T02:20:17.369Z,99.90
2023-06-23T02:21:19.793Z,99.90
2023-06-23T02:22:29.748Z,99.90
2023-06-23T02:23:33.724Z,99.90
2023-06-23T02:24:37.193Z,99.90
2023-06-23T02:25:41.034Z,99.90
2023-06-23T02:26:46.682Z,99.90
2023-06-23T02:27:50.048Z,99.90
2023-06-23T02:28:52.633Z,99.90
2023-06-23T02:29:56.101Z,99.90
2023-06-23T02:31:01.508Z,99.90
2023-06-23T02:32:04.593Z,99.90
2023-06-23T02:33:07.155Z,99.90
2023-06-23T02:34:10.145Z,99.90
2023-06-23T02:35:15.589Z,99.90
2023-06-23T02:36:35.435Z,99.90
2023-06-23T02:37:42.628Z,99.90
2023-06-23T02:38:45.649Z,99.90
2023-06-23T02:39:57.089Z,99.90
2023-06-23T02:41:01.002Z,99.90
2023-06-23T02:42:06.380Z,99.90
2023-06-23T02:43:17.383Z,99.90
2023-06-23T02:44:26.239Z,99.90
2023-06-23T02:45:34.296Z,99.90
2023-06-23T02:46:40.320Z,99.90
2023-06-23T02:47:45.301Z,99.90
2023-06-23T02:48:51.558Z,99.90
2023-06-23T02:49:59.023Z,99.90
2023-06-23T02:51:02.761Z,99.90
2023-06-23T02:52:09.831Z,99.90
2023-06-23T02:53:17.790Z,99.90
2023-06-23T02:54:20.145Z,99.90
2023-06-23T02:55:23.508Z,99.90
2023-06-23T02:56:28.943Z,99.90
2023-06-23T02:57:34.592Z,99.90
2023-06-23T02:58:38.835Z,99.90
2023-06-23T02:59:48.685Z,99.90
2023-06-23T03:00:52.458Z,99.90
2023-06-23T03:01:57.577Z,99.90
2023-06-23T03:03:03.100Z,99.90
2023-06-23T03:04:06.061Z,99.90
2023-06-23T03:05:09.314Z,99.90
2023-06-23T03:06:19.600Z,99.90
2023-06-23T03:07:22.498Z,99.90
2023-06-23T03:08:28.022Z,99.90
2023-06-23T03:09:30.792Z,99.90
2023-06-23T03:10:33.859Z,99.90
2023-06-23T03:11:38.122Z,99.90
2023-06-23T03:12:42.206Z,99.90
2023-06-23T03:13:45.222Z,99.90
2023-06-23T03:14:48.613Z,99.90
2023-06-23T03:16:00.255Z,99.90
2023-06-23T03:17:10.317Z,99.90
2023-06-23T03:18:17.758Z,99.90
2023-06-23T03:19:51.229Z,99.90
2023-06-23T03:20:58.602Z,99.90
2023-06-23T03:22:25.149Z,99.90
2023-06-23T03:23:28.775Z,99.90
2023-06-23T03:24:33.297Z,99.90
2023-06-23T03:25:38.395Z,99.90
2023-06-23T03:26:46.572Z,99.90
2023-06-23T03:27:50.605Z,99.90
2023-06-23T03:28:57.545Z,99.90
2023-06-23T03:30:26.071Z,99.90
2023-06-23T03:31:29.557Z,99.90
2023-06-23T03:32:37.322Z,99.90
2023-06-23T03:33:47.114Z,99.90
2023-06-23T03:35:03.738Z,99.90
2023-06-23T03:36:18.742Z,99.90
2023-06-23T03:37:23.610Z,99.90
2023-06-23T03:38:27.406Z,99.90
2023-06-23T03:39:35.400Z,99.90
2023-06-23T03:40:42.629Z,99.90
2023-06-23T03:41:45.287Z,99.90
2023-06-23T03:42:56.454Z,99.90
2023-06-23T03:44:12.984Z,99.90
2023-06-23T03:45:16.960Z,99.90
2023-06-23T03:46:32.611Z,99.90
2023-06-23T03:47:36.658Z,99.90
2023-06-23T03:48:42.198Z,99.90
2023-06-23T03:49:48.245Z,99.90
2023-06-23T03:50:53.174Z,99.90
2023-06-23T03:51:59.171Z,99.90
2023-06-23T03:53:05.240Z,99.90
2023-06-23T03:54:09.601Z,99.90
2023-06-23T03:55:14.150Z,99.90
2023-06-23T03:56:17.755Z,99.90
2023-06-23T03:57:23.358Z,99.90
2023-06-23T03:58:26.662Z,99.90
2023-06-23T03:59:30.021Z,99.90
2023-06-23T04:00:38.315Z,99.90
2023-06-23T04:01:45.447Z,99.90
2023-06-23T04:02:50.596Z,99.90
2023-06-23T04:03:55.836Z,99.90
2023-06-23T04:05:00.672Z,99.90
2023-06-23T04:06:08.714Z,99.90
2023-06-23T04:07:11.906Z,99.90
2023-06-23T04:08:15.776Z,99.90
2023-06-23T04:09:25.708Z,99.90
2023-06-23T04:10:30.043Z,99.90
2023-06-23T04:11:33.309Z,99.90
2023-06-23T04:12:36.726Z,99.90
2023-06-23T04:13:40.988Z,99.90
2023-06-23T04:14:46.126Z,99.90
2023-06-23T04:15:50.811Z,99.90
2023-06-23T04:16:57.698Z,99.90
2023-06-23T04:18:01.104Z,99.90
2023-06-23T04:19:07.141Z,99.90
2023-06-23T04:20:11.780Z,99.90
2023-06-23T04:21:17.214Z,99.90
2023-06-23T04:22:20.965Z,99.90
2023-06-23T04:23:25.254Z,99.90
2023-06-23T04:24:29.265Z,99.90
2023-06-23T04:25:32.335Z,99.90
2023-06-23T04:26:39.236Z,99.90
2023-06-23T04:27:44.255Z,99.90
2023-06-23T04:28:49.288Z,99.90
2023-06-23T04:29:53.368Z,99.90
2023-06-23T04:30:59.768Z,99.90
2023-06-23T04:32:02.660Z,99.90
2023-06-23T04:33:05.459Z,99.90
2023-06-23T04:34:07.803Z,99.90
2023-06-23T04:35:10.119Z,99.90
2023-06-23T04:36:17.601Z,99.90
2023-06-23T04:37:21.960Z,99.90
2023-06-23T04:38:28.473Z,99.90
2023-06-23T04:39:38.008Z,99.90
2023-06-23T04:40:47.772Z,99.90
2023-06-23T04:41:54.503Z,99.90
2023-06-23T04:43:24.297Z,99.90
2023-06-23T04:44:29.681Z,99.90
2023-06-23T04:45:34.674Z,99.90
2023-06-23T04:46:40.446Z,99.90
2023-06-23T04:47:45.063Z,99.90
2023-06-23T04:48:52.882Z,99.90
2023-06-23T04:49:59.666Z,99.90
2023-06-23T04:51:08.539Z,99.90
2023-06-23T04:52:12.924Z,99.90
2023-06-23T04:53:20.010Z,99.90
2023-06-23T04:54:32.283Z,99.90
2023-06-23T04:55:37.182Z,99.90
2023-06-23T04:56:42.387Z,99.90
2023-06-23T04:57:46.536Z,99.90
2023-06-23T04:58:54.104Z,99.90
2023-06-23T05:00:00.261Z,99.90
2023-06-23T05:01:04.446Z,99.90
2023-06-23T05:02:07.708Z,99.90
2023-06-23T05:03:10.992Z,99.90
2023-06-23T05:04:17.159Z,99.90
2023-06-23T05:05:24.852Z,99.90
2023-06-23T05:06:28.807Z,99.90
2023-06-23T05:07:31.971Z,99.90
2023-06-23T05:08:36.214Z,99.90
2023-06-23T05:09:40.646Z,99.90
2023-06-23T05:10:45.856Z,99.90
2023-06-23T05:11:49.768Z,99.90
2023-06-23T05:12:54.909Z,99.90
2023-06-23T05:13:57.974Z,99.90
2023-06-23T05:15:01.816Z,99.90
2023-06-23T05:16:05.495Z,99.90
2023-06-23T05:17:11.738Z,99.90
2023-06-23T05:18:14.744Z,99.90
2023-06-23T05:19:18.647Z,99.90
2023-06-23T05:20:23.911Z,99.90
2023-06-23T05:21:28.937Z,99.90
2023-06-23T05:22:32.231Z,99.90
2023-06-23T05:24:52.041Z,99.90
2023-06-23T05:26:00.065Z,99.90
2023-06-23T05:27:03.706Z,99.90
2023-06-23T05:28:07.856Z,99.90
2023-06-23T05:29:12.987Z,99.90
2023-06-23T05:30:18.624Z,99.90
2023-06-23T05:31:24.953Z,99.90
2023-06-23T05:32:31.787Z,99.90
2023-06-23T05:33:37.695Z,99.90
2023-06-23T05:34:42.171Z,99.90
2023-06-23T05:35:47.957Z,99.90
2023-06-23T05:36:53.534Z,99.90
2023-06-23T05:37:57.838Z,99.90
2023-06-23T05:39:01.150Z,99.90
2023-06-23T05:40:05.880Z,99.90
2023-06-23T05:41:08.378Z,99.90
2023-06-23T05:42:10.754Z,99.90
2023-06-23T05:43:13.142Z,99.90
2023-06-23T05:44:15.726Z,99.90
2023-06-23T05:45:18.236Z,99.90
2023-06-23T05:46:24.500Z,99.90
2023-06-23T05:47:31.728Z,99.90
2023-06-23T05:48:43.603Z,99.90
2023-06-23T05:49:48.579Z,99.90
2023-06-23T05:50:51.933Z,99.90
2023-06-23T05:52:02.105Z,99.90
2023-06-23T05:53:10.071Z,99.90
2023-06-23T05:54:13.159Z,99.90
2023-06-23T05:55:16.522Z,99.90
2023-06-23T05:56:44.717Z,99.90
2023-06-23T05:57:48.751Z,99.90
2023-06-23T05:58:58.710Z,99.90
2023-06-23T06:00:07.193Z,99.90
2023-06-23T06:01:20.480Z,99.90
2023-06-23T06:02:28.560Z,99.90
2023-06-23T06:03:37.625Z,99.90
2023-06-23T06:04:42.030Z,99.90
2023-06-23T06:05:48.874Z,99.90
2023-06-23T06:06:53.752Z,99.90
2023-06-23T06:07:59.108Z,99.90
2023-06-23T06:09:02.892Z,99.90
2023-06-23T06:10:07.603Z,99.90
2023-06-23T06:11:11.789Z,99.90
2023-06-23T06:12:15.004Z,99.90
2023-06-23T06:13:19.199Z,99.90
2023-06-23T06:14:22.884Z,99.90
2023-06-23T06:15:26.208Z,99.90
2023-06-23T06:16:29.264Z,99.90
2023-06-23T06:17:33.782Z,99.90
2023-06-23T06:18:38.214Z,99.90
2023-06-23T06:19:42.979Z,99.90
2023-06-23T06:20:47.653Z,99.90
2023-06-23T06:21:51.420Z,99.90
2023-06-23T06:23:00.164Z,99.90
2023-06-23T06:24:11.665Z,99.90
2023-06-23T06:25:15.695Z,99.90
2023-06-23T06:26:20.129Z,99.90
2023-06-23T06:27:23.857Z,99.90
2023-06-23T06:28:28.037Z,99.90
2023-06-23T06:29:31.608Z,99.90
2023-06-23T06:30:35.704Z,99.90
2023-06-23T06:31:39.082Z,99.90
2023-06-23T06:32:43.729Z,99.90
2023-06-23T06:33:50.016Z,99.90
2023-06-23T06:34:54.419Z,99.90
2023-06-23T06:36:00.012Z,99.90
2023-06-23T06:37:03.689Z,99.90
2023-06-23T06:38:08.288Z,99.90
2023-06-23T06:39:12.153Z,99.90
2023-06-23T06:40:15.914Z,99.90
2023-06-23T06:41:19.052Z,99.90
2023-06-23T06:42:21.340Z,99.90
2023-06-23T06:43:23.556Z,99.90
2023-06-23T06:44:26.280Z,99.90
2023-06-23T06:45:28.595Z,99.90
2023-06-23T06:46:31.544Z,99.90
2023-06-23T06:47:41.927Z,99.90
2023-06-23T06:48:47.824Z,99.90
2023-06-23T06:49:51.187Z,99.90
2023-06-23T06:50:54.374Z,99.90
2023-06-23T06:51:58.014Z,99.90
2023-06-23T06:53:01.283Z,99.90
2023-06-23T06:54:03.621Z,99.90
2023-06-23T06:55:06.285Z,99.90
2023-06-23T06:56:09.080Z,99.90
2023-06-23T06:57:12.309Z,99.90
2023-06-23T06:58:15.162Z,99.90
2023-06-23T06:59:17.648Z,99.90
2023-06-23T07:00:21.794Z,99.90
2023-06-23T07:01:25.001Z,99.90
2023-06-23T07:02:29.083Z,99.90
2023-06-23T07:03:33.687Z,99.90
2023-06-23T07:04:37.027Z,99.90
2023-06-23T07:05:39.245Z,99.90
2023-06-23T07:06:42.037Z,99.90
2023-06-23T07:07:45.707Z,99.90
2023-06-23T07:08:48.023Z,99.90
2023-06-23T07:09:50.207Z,99.90
2023-06-23T07:10:55.472Z,99.90
2023-06-23T07:12:00.705Z,99.90
2023-06-23T07:13:04.385Z,99.90
2023-06-23T07:14:19.750Z,99.90
2023-06-23T07:15:27.115Z,99.90
2023-06-23T07:16:34.635Z,99.90
2023-06-23T07:17:40.062Z,99.90
2023-06-23T07:18:44.435Z,99.90
2023-06-23T07:19:49.228Z,99.90
2023-06-23T07:20:51.801Z,99.90
2023-06-23T07:21:54.273Z,99.90
2023-06-23T07:23:00.350Z,99.90
2023-06-23T07:24:02.842Z,99.90
2023-06-23T07:25:05.540Z,99.90
2023-06-23T07:26:07.954Z,99.90
2023-06-23T07:27:10.814Z,99.90
2023-06-23T07:28:16.466Z,99.90
2023-06-23T07:29:18.909Z,99.90
2023-06-23T07:30:21.377Z,99.90
2023-06-23T07:31:26.778Z,99.90
2023-06-23T07:32:29.511Z,99.90
2023-06-23T07:33:31.922Z,99.90
2023-06-23T07:34:34.495Z,99.90
2023-06-23T07:35:39.577Z,99.90
2023-06-23T07:36:42.016Z,99.90
2023-06-23T07:37:46.695Z,99.90
2023-06-23T07:38:50.178Z,99.90
2023-06-23T07:39:52.462Z,99.90
2023-06-23T07:40:55.879Z,99.90
2023-06-23T07:41:58.032Z,99.90
2023-06-23T07:43:00.623Z,99.90
2023-06-23T07:44:03.204Z,99.90
2023-06-23T07:45:06.319Z,99.90
2023-06-23T07:46:08.909Z,99.90
2023-06-23T07:47:14.804Z,99.90
2023-06-23T07:48:17.805Z,99.90
2023-06-23T07:49:20.152Z,99.90
2023-06-23T07:50:22.377Z,99.90
2023-06-23T07:51:24.671Z,99.90
2023-06-23T07:52:30.648Z,99.90
2023-06-23T07:53:36.065Z,99.90
2023-06-23T07:54:38.563Z,99.90
2023-06-23T07:55:40.951Z,99.90
2023-06-23T07:56:49.642Z,99.90
2023-06-23T07:57:54.366Z,99.90
2023-06-23T07:58:56.714Z,99.90
2023-06-23T08:00:01.065Z,99.90
2023-06-23T08:01:08.248Z,99.90
2023-06-23T08:02:14.290Z,99.90
2023-06-23T08:03:16.890Z,99.90
2023-06-23T08:04:20.083Z,99.90
2023-06-23T08:05:23.019Z,99.90
2023-06-23T08:06:25.775Z,99.90
2023-06-23T08:07:28.211Z,99.90
2023-06-23T08:08:30.640Z,99.90
2023-06-23T08:09:33.051Z,99.90
2023-06-23T08:10:35.511Z,99.90
2023-06-23T08:11:37.756Z,99.90
2023-06-23T08:12:40.220Z,99.90
2023-06-23T08:13:50.583Z,99.90
2023-06-23T08:14:53.343Z,99.90
2023-06-23T08:15:55.610Z,99.90
2023-06-23T08:16:58.153Z,99.90
2023-06-23T08:18:03.100Z,99.90
2023-06-23T08:19:34.511Z,99.90
2023-06-23T08:20:39.441Z,99.90
2023-06-23T08:21:52.303Z,99.90
2023-06-23T08:22:57.154Z,99.90
2023-06-23T08:24:02.797Z,99.90
2023-06-23T08:25:20.003Z,99.90
2023-06-23T08:26:25.095Z,99.90
2023-06-23T08:29:23.132Z,99.90
2023-06-23T08:30:32.734Z,99.90
2023-06-23T08:31:35.415Z,99.90
2023-06-23T08:32:41.912Z,99.90
2023-06-23T08:33:44.964Z,99.90
2023-06-23T08:36:15.548Z,99.90
2023-06-23T08:37:17.824Z,99.90
2023-06-23T08:38:23.821Z,99.90
2023-06-23T08:39:28.543Z,99.90
2023-06-23T08:40:31.062Z,99.90
2023-06-23T08:41:34.823Z,99.90
2023-06-23T08:42:37.670Z,99.90
2023-06-23T08:43:45.411Z,99.90
2023-06-23T08:44:49.364Z,99.90
2023-06-23T08:46:00.485Z,99.70
2023-06-23T08:48:49.602Z,99.60
2023-06-23T08:49:55.807Z,99.90
2023-06-23T08:51:01.076Z,99.90
2023-06-23T08:52:03.910Z,99.90
2023-06-23T08:53:06.609Z,99.90
2023-06-23T08:54:09.567Z,99.70
2023-06-23T08:55:12.487Z,99.80
2023-06-23T08:56:15.721Z,99.90
2023-06-23T08:57:18.545Z,99.90
2023-06-23T08:58:25.189Z,99.80
2023-06-23T08:59:28.859Z,99.70
2023-06-23T09:00:31.727Z,99.50
2023-06-23T09:01:35.119Z,99.50
2023-06-23T09:02:37.672Z,99.30
2023-06-23T09:03:39.949Z,99.40
2023-06-23T09:04:42.063Z,99.60
2023-06-23T09:05:44.386Z,99.40
2023-06-23T09:06:47.193Z,99.60
2023-06-23T09:07:49.934Z,99.70
2023-06-23T09:08:52.273Z,99.50
2023-06-23T09:09:54.795Z,99.70
2023-06-23T09:10:57.261Z,99.40
2023-06-23T09:12:00.755Z,99.60
2023-06-23T09:13:08.833Z,99.50
2023-06-23T09:14:12.778Z,99.50
2023-06-23T09:15:15.986Z,99.20
2023-06-23T09:16:19.544Z,99.00
2023-06-23T09:17:22.157Z,98.90
2023-06-23T09:18:24.650Z,99.20
2023-06-23T09:19:27.429Z,99.50
2023-06-23T09:20:31.744Z,99.00
2023-06-23T09:21:36.893Z,97.80
2023-06-23T09:22:40.783Z,97.80
2023-06-23T09:24:06.898Z,97.90
2023-06-23T09:25:09.691Z,97.60
2023-06-23T09:26:20.053Z,97.20
2023-06-23T09:27:42.975Z,97.30
2023-06-23T09:28:45.145Z,97.20
2023-06-23T09:30:04.057Z,96.50
2023-06-23T09:31:11.889Z,96.40
2023-06-23T09:32:28.518Z,96.60
2023-06-23T09:33:30.668Z,96.40
2023-06-23T09:34:37.678Z,96.30
2023-06-23T09:35:54.310Z,96.30
2023-06-23T09:37:17.817Z,95.70
2023-06-23T09:38:25.125Z,95.60
2023-06-23T09:39:27.649Z,95.70
2023-06-23T09:40:30.758Z,95.60
2023-06-23T09:41:43.909Z,95.50
2023-06-23T09:43:01.468Z,95.50
2023-06-23T09:44:12.623Z,95.40
2023-06-23T09:45:19.072Z,95.30
2023-06-23T09:46:24.331Z,95.10
2023-06-23T09:47:28.332Z,95.30
2023-06-23T09:48:30.658Z,95.30
2023-06-23T09:49:41.156Z,95.50
2023-06-23T09:50:43.994Z,95.10
2023-06-23T09:51:49.076Z,94.90
2023-06-23T09:53:06.839Z,94.30
2023-06-23T09:54:09.121Z,94.20
2023-06-23T09:55:11.536Z,94.60
2023-06-23T09:56:20.371Z,94.10
2023-06-23T09:57:22.760Z,93.90
2023-06-23T09:58:28.927Z,94.20
2023-06-23T09:59:32.282Z,93.80
2023-06-23T10:00:34.887Z,93.60
2023-06-23T10:01:38.665Z,93.60
2023-06-23T10:02:41.057Z,93.40
2023-06-23T10:03:54.163Z,93.10
2023-06-23T10:05:05.316Z,92.90
2023-06-23T10:06:07.528Z,92.50
2023-06-23T10:07:39.165Z,92.10
2023-06-23T10:08:41.491Z,92.60
2023-06-23T10:09:50.767Z,92.20
2023-06-23T10:10:53.201Z,92.50
2023-06-23T10:11:55.358Z,92.30
2023-06-23T10:12:57.612Z,92.10
2023-06-23T10:14:06.818Z,92.20
2023-06-23T10:15:10.409Z,91.90
2023-06-23T10:16:12.883Z,92.10
2023-06-23T10:17:15.728Z,92.30
2023-06-23T10:18:19.457Z,92.30
2023-06-23T10:19:22.691Z,92.20
2023-06-23T10:20:24.786Z,92.10
2023-06-23T10:21:27.224Z,92.60
2023-06-23T10:22:29.588Z,92.10
2023-06-23T10:23:35.829Z,91.90
2023-06-23T10:24:38.357Z,91.70
2023-06-23T10:25:41.760Z,91.60
2023-06-23T10:27:09.758Z,91.20
2023-06-23T10:28:31.100Z,90.70
2023-06-23T10:29:51.117Z,90.50
2023-06-23T10:30:54.631Z,91.00
2023-06-23T10:31:58.989Z,90.50
2023-06-23T10:33:04.160Z,90.30
2023-06-23T10:34:07.879Z,90.00
2023-06-23T10:35:12.245Z,90.20
2023-06-23T10:36:22.249Z,89.80
2023-06-23T10:37:35.505Z,90.20
2023-06-23T10:38:45.563Z,89.90
2023-06-23T10:39:52.166Z,90.20
2023-06-23T10:40:59.575Z,89.60
2023-06-23T10:42:02.503Z,88.80
2023-06-23T10:43:07.118Z,88.60
2023-06-23T10:44:10.433Z,88.50
2023-06-23T10:45:12.550Z,87.90
2023-06-23T10:46:15.406Z,87.30
2023-06-23T10:47:18.477Z,86.80
2023-06-23T10:48:21.215Z,84.40
2023-06-23T10:49:25.321Z,86.00
2023-06-23T10:50:31.457Z,86.40
2023-06-23T10:51:34.627Z,85.80
2023-06-23T10:52:36.877Z,85.80
2023-06-23T10:53:46.927Z,87.30
2023-06-23T10:54:49.408Z,87.10
2023-06-23T10:56:07.483Z,83.90
2023-06-23T10:57:13.586Z,82.10
2023-06-23T10:58:19.952Z,82.00
2023-06-23T10:59:24.558Z,83.90
2023-06-23T11:00:32.688Z,83.70
2023-06-23T11:02:01.064Z,83.90
2023-06-23T11:03:06.980Z,83.90
2023-06-23T11:04:30.291Z,83.70
2023-06-23T11:05:32.864Z,82.50
2023-06-23T11:06:37.267Z,82.40
2023-06-23T11:08:02.906Z,82.30
2023-06-23T11:09:26.377Z,81.10
2023-06-23T11:11:00.425Z,80.20
2023-06-23T11:12:21.448Z,80.70
2023-06-23T11:13:32.792Z,80.80
2023-06-23T11:14:44.544Z,82.10
2023-06-23T11:16:00.171Z,82.20
2023-06-23T11:17:03.113Z,80.30
2023-06-23T11:18:06.623Z,82.10
2023-06-23T11:19:09.872Z,82.40
2023-06-23T11:20:21.174Z,80.40
2023-06-23T11:21:33.674Z,80.80
2023-06-23T11:22:40.193Z,79.50
2023-06-23T11:24:19.668Z,78.60
2023-06-23T11:25:35.035Z,78.80
2023-06-23T11:26:38.882Z,78.80
2023-06-23T11:27:41.170Z,79.70
2023-06-23T11:28:43.428Z,81.10
2023-06-23T11:30:15.309Z,79.50
2023-06-23T11:31:21.018Z,79.50
2023-06-23T11:32:23.457Z,79.90
2023-06-23T11:33:27.575Z,80.50
2023-06-23T11:34:31.869Z,80.30
2023-06-23T11:35:36.095Z,80.10
2023-06-23T11:36:38.783Z,78.80
2023-06-23T11:37:41.324Z,78.70
2023-06-23T11:38:45.569Z,78.90
2023-06-23T11:39:49.247Z,79.60
2023-06-23T11:40:52.700Z,78.90
2023-06-23T11:41:57.289Z,78.40
2023-06-23T11:43:09.287Z,77.80
2023-06-23T11:44:22.636Z,79.60
2023-06-23T11:45:25.131Z,82.90
2023-06-23T11:46:28.327Z,83.30
2023-06-23T11:47:34.094Z,80.10
2023-06-23T11:48:43.150Z,78.90
2023-06-23T11:49:45.611Z,79.40
2023-06-23T11:50:47.937Z,76.70
2023-06-23T11:51:50.444Z,76.40
2023-06-23T11:52:53.645Z,76.40
2023-06-23T11:53:55.974Z,76.10
2023-06-23T11:54:58.541Z,76.40
2023-06-23T11:56:02.589Z,75.10
2023-06-23T11:57:05.780Z,75.50
2023-06-23T11:58:08.199Z,76.00
2023-06-23T11:59:12.336Z,76.90
2023-06-23T12:00:15.359Z,77.90
2023-06-23T12:01:19.220Z,77.90
2023-06-23T12:02:21.933Z,79.60
2023-06-23T12:03:24.558Z,80.60
2023-06-23T12:04:26.942Z,80.20
2023-06-23T12:05:31.451Z,78.50
2023-06-23T12:06:39.871Z,77.50
2023-06-23T12:07:42.327Z,78.90
2023-06-23T12:08:51.586Z,78.70
2023-06-23T12:09:54.224Z,80.10
2023-06-23T12:10:57.620Z,80.00
2023-06-23T12:12:00.876Z,79.50
2023-06-23T12:13:05.618Z,79.80
2023-06-23T12:14:10.169Z,79.70
2023-06-23T12:15:12.727Z,80.30
2023-06-23T12:16:15.404Z,80.30
2023-06-23T12:17:17.921Z,80.50
2023-06-23T12:18:20.428Z,79.50
2023-06-23T12:19:23.182Z,80.10
2023-06-23T12:20:26.303Z,79.90
2023-06-23T12:21:28.656Z,80.60
2023-06-23T12:22:37.948Z,80.20
2023-06-23T12:23:41.675Z,80.60
2023-06-23T12:24:44.573Z,81.50
2023-06-23T12:25:51.191Z,81.40
2023-06-23T12:26:53.887Z,80.90
2023-06-23T12:27:56.911Z,82.90
2023-06-23T12:29:10.306Z,80.80
2023-06-23T12:30:20.808Z,82.30
2023-06-23T12:31:32.267Z,81.70
2023-06-23T12:32:35.162Z,82.10
2023-06-23T12:33:41.983Z,80.10
2023-06-23T12:34:50.452Z,80.30
2023-06-23T12:36:04.467Z,80.20
2023-06-23T12:37:10.300Z,80.10
2023-06-23T12:38:12.972Z,79.50
2023-06-23T12:39:18.520Z,80.40
2023-06-23T12:40:35.312Z,80.10
2023-06-23T12:41:38.926Z,81.30
2023-06-23T12:42:43.393Z,81.00
2023-06-23T12:43:51.033Z,80.70
2023-06-23T12:44:53.467Z,81.10
2023-06-23T12:45:56.078Z,82.10
2023-06-23T12:46:59.346Z,80.60
2023-06-23T12:48:02.577Z,81.30
2023-06-23T12:49:11.616Z,81.20
2023-06-23T12:50:19.695Z,81.70
2023-06-23T12:51:35.533Z,82.00
2023-06-23T12:52:38.002Z,82.10
2023-06-23T12:53:41.842Z,80.90
2023-06-23T12:54:45.355Z,80.20
2023-06-23T12:55:47.947Z,81.60
2023-06-23T12:56:50.425Z,81.00
2023-06-23T12:57:52.940Z,80.40
2023-06-23T12:58:55.917Z,80.90
2023-06-23T12:59:58.409Z,82.40
2023-06-23T13:01:00.800Z,81.10
2023-06-23T13:02:03.271Z,80.90
2023-06-23T13:03:07.955Z,80.30
2023-06-23T13:04:12.453Z,81.40
2023-06-23T13:05:15.045Z,81.50
2023-06-23T13:06:17.693Z,81.10
2023-06-23T13:07:20.120Z,80.90
2023-06-23T13:08:22.555Z,80.70
2023-06-23T13:09:25.406Z,79.60
2023-06-23T13:10:28.142Z,79.50
2023-06-23T13:11:32.194Z,79.70
2023-06-23T13:12:35.412Z,79.80
2023-06-23T13:13:37.744Z,79.50
2023-06-23T13:14:40.106Z,79.60
2023-06-23T13:15:43.794Z,79.20
2023-06-23T13:16:49.123Z,79.20
2023-06-23T13:17:51.726Z,79.70
2023-06-23T13:18:55.040Z,79.30
2023-06-23T13:19:57.656Z,79.90
2023-06-23T13:21:03.210Z,78.40
2023-06-23T13:22:06.470Z,78.50
2023-06-23T13:23:08.910Z,78.40
2023-06-23T13:24:11.379Z,79.70
2023-06-23T13:25:14.519Z,79.60
2023-06-23T13:26:16.969Z,79.20
2023-06-23T13:27:19.354Z,79.30
2023-06-23T13:28:22.019Z,79.20
2023-06-23T13:29:24.665Z,80.00
2023-06-23T13:30:27.214Z,79.80
2023-06-23T13:31:30.060Z,80.40
2023-06-23T13:32:32.482Z,80.10
2023-06-23T13:33:34.790Z,80.60
2023-06-23T13:34:37.724Z,81.40
2023-06-23T13:35:39.960Z,81.40
2023-06-23T13:36:44.892Z,81.70
2023-06-23T13:37:47.422Z,80.60
2023-06-23T13:38:49.914Z,81.20
2023-06-23T13:39:52.420Z,80.00
2023-06-23T13:41:02.649Z,80.70
2023-06-23T13:42:08.106Z,81.10
2023-06-23T13:43:10.454Z,80.90
2023-06-23T13:44:14.755Z,81.20
2023-06-23T13:45:22.504Z,81.20
2023-06-23T13:46:25.395Z,81.90
2023-06-23T13:47:31.187Z,81.80
2023-06-23T13:48:33.653Z,82.10
2023-06-23T13:49:39.171Z,82.60
2023-06-23T13:50:41.759Z,83.10
2023-06-23T13:51:44.114Z,83.30
2023-06-23T13:52:49.860Z,82.40
2023-06-23T13:53:55.246Z,82.80
2023-06-23T13:54:57.631Z,83.50
2023-06-23T13:56:04.216Z,83.50
2023-06-23T13:57:13.494Z,83.00
2023-06-23T13:58:16.117Z,83.50
2023-06-23T13:59:18.735Z,84.40
2023-06-23T14:00:23.340Z,84.40
2023-06-23T14:01:31.507Z,84.50
2023-06-23T14:02:36.885Z,84.60
2023-06-23T14:03:39.564Z,84.50
2023-06-23T14:04:42.100Z,85.00
2023-06-23T14:05:53.818Z,85.30
2023-06-23T14:06:57.956Z,84.80
2023-06-23T14:08:00.522Z,84.70
2023-06-23T14:09:04.797Z,83.80
2023-06-23T14:10:07.492Z,84.80
2023-06-23T14:11:13.130Z,84.60
2023-06-23T14:12:15.791Z,84.10
2023-06-23T14:13:18.162Z,83.60
2023-06-23T14:14:20.620Z,84.20
2023-06-23T14:15:22.886Z,84.40
2023-06-23T14:16:28.475Z,85.00
2023-06-23T14:17:31.552Z,86.50